createdAt,value
2016-12-03T00:00:11.709Z,18.10
2016-12-03T00:01:12.621Z,18.10
2016-12-03T00:02:13.108Z,18.10
2016-12-03T00:03:11.949Z,18.10
2016-12-03T00:04:14.536Z,18.10
2016-12-03T00:05:11.611Z,18.10
2016-12-03T00:06:13.567Z,18.10
2016-12-03T00:07:13.999Z,18.10
2016-12-03T00:08:08.394Z,18.10
2016-12-03T00:09:11.816Z,18.10
2016-12-03T00:10:10.435Z,18.10
2016-12-03T00:11:10.228Z,18.10
2016-12-03T00:12:14.445Z,18.10
2016-12-03T00:13:12.084Z,18.10
2016-12-03T00:14:11.168Z,18.10
2016-12-03T00:15:11.752Z,18.10
2016-12-03T00:16:12.324Z,18.10
2016-12-03T00:17:12.362Z,18.10
2016-12-03T00:18:09.931Z,18.10
2016-12-03T00:19:12.350Z,18.10
2016-12-03T00:20:11.467Z,18.10
2016-12-03T00:21:10.208Z,18.10
2016-12-03T00:22:12.141Z,18.10
2016-12-03T00:23:12.688Z,18.10
2016-12-03T00:24:11.838Z,18.10
2016-12-03T00:25:12.357Z,18.10
2016-12-03T00:26:12.141Z,18.10
2016-12-03T00:27:11.155Z,18.10
2016-12-03T00:28:11.154Z,18.00
2016-12-03T00:29:11.234Z,18.10
2016-12-03T00:30:12.190Z,18.00
2016-12-03T00:31:11.282Z,18.00
2016-12-03T00:32:11.843Z,18.00
2016-12-03T00:33:12.761Z,18.00
2016-12-03T00:34:12.847Z,18.00
2016-12-03T00:35:13.592Z,18.00
2016-12-03T00:36:11.663Z,18.00
2016-12-03T00:37:12.551Z,18.00
2016-12-03T00:38:11.841Z,18.00
2016-12-03T00:39:12.316Z,18.00
2016-12-03T00:40:11.732Z,18.00
2016-12-03T00:41:11.814Z,18.00
2016-12-03T00:42:13.050Z,18.00
2016-12-03T00:43:11.882Z,18.00
2016-12-03T00:44:11.933Z,18.00
2016-12-03T00:45:12.462Z,18.00
2016-12-03T00:46:12.425Z,18.00
2016-12-03T00:47:11.432Z,18.00
2016-12-03T00:48:11.418Z,18.00
2016-12-03T00:49:14.151Z,18.00
2016-12-03T00:50:11.781Z,18.00
2016-12-03T00:51:12.175Z,18.00
2016-12-03T00:52:11.752Z,18.00
2016-12-03T00:53:11.828Z,18.00
2016-12-03T00:54:11.823Z,18.00
2016-12-03T00:55:13.387Z,18.00
2016-12-03T00:56:13.038Z,18.00
2016-12-03T00:57:12.117Z,18.00
2016-12-03T00:58:11.811Z,18.00
2016-12-03T00:59:12.448Z,18.00
2016-12-03T01:00:12.973Z,18.00
2016-12-03T01:01:11.671Z,18.00
2016-12-03T01:02:13.357Z,18.00
2016-12-03T01:03:12.185Z,18.00
2016-12-03T01:04:11.642Z,18.00
2016-12-03T01:05:13.291Z,18.00
2016-12-03T01:06:11.922Z,18.00
2016-12-03T01:07:11.919Z,18.00
2016-12-03T01:08:12.781Z,18.00
2016-12-03T01:09:10.349Z,18.00
2016-12-03T01:10:12.537Z,18.00
2016-12-03T01:11:17.824Z,18.00
2016-12-03T01:12:14.217Z,18.00
2016-12-03T01:13:12.237Z,18.00
2016-12-03T01:14:13.394Z,18.00
2016-12-03T01:15:12.631Z,18.00
2016-12-03T01:16:12.079Z,18.00
2016-12-03T01:17:11.881Z,18.00
2016-12-03T01:18:13.573Z,18.00
2016-12-03T01:19:13.184Z,18.00
2016-12-03T01:20:13.788Z,18.00
2016-12-03T01:21:14.155Z,18.00
2016-12-03T01:22:13.063Z,18.00
2016-12-03T01:23:12.552Z,18.00
2016-12-03T01:24:12.917Z,18.00
2016-12-03T01:25:11.981Z,18.00
2016-12-03T01:26:13.542Z,18.00
2016-12-03T01:27:09.658Z,18.00
2016-12-03T01:28:14.400Z,18.00
2016-12-03T01:29:15.657Z,18.00
2016-12-03T01:30:12.042Z,18.00
2016-12-03T01:31:13.655Z,18.00
2016-12-03T01:32:10.647Z,18.00
2016-12-03T01:33:11.572Z,18.00
2016-12-03T01:34:14.449Z,18.00
2016-12-03T01:35:12.061Z,18.00
2016-12-03T01:36:14.027Z,18.00
2016-12-03T01:37:13.362Z,18.00
2016-12-03T01:38:12.378Z,18.00
2016-12-03T01:39:11.410Z,18.00
2016-12-03T01:40:12.044Z,18.00
2016-12-03T01:41:11.509Z,18.00
2016-12-03T01:42:12.473Z,18.00
2016-12-03T01:43:12.674Z,18.00
2016-12-03T01:44:09.491Z,18.00
2016-12-03T01:45:14.517Z,18.00
2016-12-03T01:46:12.944Z,18.00
2016-12-03T01:47:13.492Z,18.00
2016-12-03T01:48:12.072Z,18.00
2016-12-03T01:49:11.151Z,18.00
2016-12-03T01:50:12.886Z,18.00
2016-12-03T01:51:14.587Z,18.00
2016-12-03T01:52:12.326Z,18.00
2016-12-03T01:53:12.544Z,18.00
2016-12-03T01:54:12.616Z,18.00
2016-12-03T01:55:12.314Z,18.00
2016-12-03T01:56:11.364Z,18.00
2016-12-03T01:57:16.066Z,18.00
2016-12-03T01:58:13.013Z,18.00
2016-12-03T01:59:11.967Z,18.00
2016-12-03T02:00:11.506Z,18.00
2016-12-03T02:01:13.105Z,18.00
2016-12-03T02:02:11.462Z,18.00
2016-12-03T02:03:11.472Z,18.00
2016-12-03T02:04:11.400Z,18.00
2016-12-03T02:05:11.467Z,18.00
2016-12-03T02:06:12.632Z,18.00
2016-12-03T02:07:12.135Z,18.00
2016-12-03T02:08:13.574Z,18.00
2016-12-03T02:09:13.976Z,18.00
2016-12-03T02:10:13.419Z,18.00
2016-12-03T02:11:13.106Z,18.00
2016-12-03T02:12:13.925Z,18.00
2016-12-03T02:13:13.324Z,18.00
2016-12-03T02:14:12.403Z,18.00
2016-12-03T02:15:11.360Z,18.00
2016-12-03T02:16:12.388Z,18.00
2016-12-03T02:17:13.994Z,18.00
2016-12-03T02:18:12.991Z,18.00
2016-12-03T02:19:12.517Z,18.00
2016-12-03T02:20:12.818Z,18.00
2016-12-03T02:21:09.805Z,18.00
2016-12-03T02:22:13.513Z,18.00
2016-12-03T02:23:12.115Z,18.00
2016-12-03T02:24:11.035Z,18.00
2016-12-03T02:25:11.644Z,18.00
2016-12-03T02:26:10.035Z,18.00
2016-12-03T02:27:12.536Z,18.00
2016-12-03T02:28:13.203Z,18.00
2016-12-03T02:29:11.276Z,18.00
2016-12-03T02:30:11.779Z,18.00
2016-12-03T02:31:12.464Z,18.00
2016-12-03T02:32:12.212Z,18.00
2016-12-03T02:33:14.002Z,18.00
2016-12-03T02:34:12.043Z,18.00
2016-12-03T02:35:13.053Z,18.00
2016-12-03T02:36:12.336Z,18.00
2016-12-03T02:37:11.545Z,18.00
2016-12-03T02:38:12.215Z,18.00
2016-12-03T02:39:13.495Z,18.00
2016-12-03T02:40:12.804Z,18.00
2016-12-03T02:41:12.403Z,18.00
2016-12-03T02:42:12.527Z,18.00
2016-12-03T02:43:12.024Z,18.00
2016-12-03T02:44:12.365Z,18.00
2016-12-03T02:45:11.403Z,18.00
2016-12-03T02:46:12.084Z,18.00
2016-12-03T02:47:12.215Z,18.00
2016-12-03T02:48:11.722Z,18.00
2016-12-03T02:49:12.693Z,18.00
2016-12-03T02:50:12.134Z,18.00
2016-12-03T02:51:11.735Z,18.00
2016-12-03T02:52:13.517Z,18.00
2016-12-03T02:53:12.239Z,18.00
2016-12-03T02:54:12.393Z,18.00
2016-12-03T02:55:11.396Z,18.00
2016-12-03T02:56:12.362Z,18.00
2016-12-03T02:57:09.854Z,18.00
2016-12-03T02:58:11.842Z,18.00
2016-12-03T02:59:13.094Z,18.00
2016-12-03T03:00:11.038Z,18.00
2016-12-03T03:01:11.061Z,18.00
2016-12-03T03:02:11.147Z,18.00
2016-12-03T03:03:11.896Z,18.00
2016-12-03T03:04:12.580Z,18.00
2016-12-03T03:05:09.744Z,18.00
2016-12-03T03:06:13.198Z,18.00
2016-12-03T03:07:12.378Z,18.00
2016-12-03T03:08:12.153Z,18.00
2016-12-03T03:09:12.175Z,18.00
2016-12-03T03:10:12.212Z,18.00
2016-12-03T03:11:12.054Z,18.00
2016-12-03T03:12:11.668Z,18.00
2016-12-03T03:13:13.166Z,18.00
2016-12-03T03:14:11.999Z,18.00
2016-12-03T03:15:12.666Z,17.90
2016-12-03T03:16:11.653Z,18.00
2016-12-03T03:17:12.317Z,18.00
2016-12-03T03:18:11.360Z,17.90
2016-12-03T03:19:11.462Z,18.00
2016-12-03T03:20:13.016Z,18.00
2016-12-03T03:21:10.512Z,18.00
2016-12-03T03:22:11.906Z,17.90
2016-12-03T03:23:11.966Z,18.00
2016-12-03T03:24:13.225Z,18.00
2016-12-03T03:25:11.765Z,18.00
2016-12-03T03:26:13.185Z,17.90
2016-12-03T03:27:09.710Z,17.90
2016-12-03T03:28:11.897Z,17.90
2016-12-03T03:29:12.555Z,17.90
2016-12-03T03:30:12.636Z,17.90
2016-12-03T03:31:11.681Z,17.90
2016-12-03T03:32:12.409Z,17.90
2016-12-03T03:33:11.896Z,18.00
2016-12-03T03:34:10.333Z,18.00
2016-12-03T03:35:12.915Z,17.90
2016-12-03T03:36:11.881Z,17.90
2016-12-03T03:37:08.739Z,18.00
2016-12-03T03:38:11.704Z,18.00
2016-12-03T03:39:09.242Z,17.90
2016-12-03T03:40:15.100Z,17.90
2016-12-03T03:41:11.246Z,17.90
2016-12-03T03:42:12.258Z,17.90
2016-12-03T03:43:12.178Z,17.90
2016-12-03T03:44:11.153Z,17.90
2016-12-03T03:45:12.888Z,17.90
2016-12-03T03:46:11.789Z,17.90
2016-12-03T03:47:11.781Z,17.90
2016-12-03T03:48:12.650Z,17.90
2016-12-03T03:49:12.280Z,17.90
2016-12-03T03:50:12.785Z,17.90
2016-12-03T03:51:11.704Z,17.90
2016-12-03T03:52:11.839Z,17.90
2016-12-03T03:53:12.120Z,17.90
2016-12-03T03:54:11.965Z,17.90
2016-12-03T03:55:12.757Z,17.90
2016-12-03T03:56:10.294Z,17.90
2016-12-03T03:57:12.405Z,17.90
2016-12-03T03:58:12.223Z,17.90
2016-12-03T03:59:10.435Z,17.90
2016-12-03T04:00:14.073Z,17.90
2016-12-03T04:01:11.943Z,17.90
2016-12-03T04:02:12.702Z,17.90
2016-12-03T04:03:12.143Z,17.90
2016-12-03T04:04:11.872Z,17.90
2016-12-03T04:05:09.660Z,17.90
2016-12-03T04:06:12.851Z,17.90
2016-12-03T04:07:11.828Z,17.90
2016-12-03T04:08:12.890Z,17.90
2016-12-03T04:09:12.128Z,17.90
2016-12-03T04:10:12.041Z,17.90
2016-12-03T04:11:11.738Z,17.90
2016-12-03T04:12:12.127Z,17.90
2016-12-03T04:13:14.172Z,17.90
2016-12-03T04:14:13.167Z,17.90
2016-12-03T04:15:11.163Z,17.90
2016-12-03T04:16:12.071Z,17.90
2016-12-03T04:17:13.322Z,17.90
2016-12-03T04:18:12.845Z,17.90
2016-12-03T04:19:12.514Z,17.90
2016-12-03T04:20:11.499Z,17.90
2016-12-03T04:21:14.189Z,17.90
2016-12-03T04:22:12.015Z,17.90
2016-12-03T04:23:11.129Z,17.90
2016-12-03T04:24:11.853Z,17.90
2016-12-03T04:25:12.713Z,17.90
2016-12-03T04:26:11.760Z,17.90
2016-12-03T04:27:11.979Z,17.90
2016-12-03T04:28:13.433Z,17.90
2016-12-03T04:29:12.856Z,17.90
2016-12-03T04:30:11.677Z,17.90
2016-12-03T04:31:11.664Z,17.90
2016-12-03T04:32:12.039Z,17.90
2016-12-03T04:33:08.807Z,17.90
2016-12-03T04:34:12.069Z,17.90
2016-12-03T04:35:12.033Z,17.90
2016-12-03T04:36:12.659Z,17.90
2016-12-03T04:37:10.023Z,17.90
2016-12-03T04:38:12.156Z,17.90
2016-12-03T04:39:12.080Z,17.90
2016-12-03T04:40:12.766Z,17.90
2016-12-03T04:41:11.550Z,17.90
2016-12-03T04:42:11.402Z,17.90
2016-12-03T04:43:11.320Z,17.90
2016-12-03T04:44:13.004Z,17.90
2016-12-03T04:45:12.049Z,17.90
2016-12-03T04:46:11.837Z,17.90
2016-12-03T04:47:12.677Z,17.90
2016-12-03T04:48:11.777Z,17.90
2016-12-03T04:49:12.301Z,17.90
2016-12-03T04:50:12.003Z,17.90
2016-12-03T04:51:12.090Z,17.90
2016-12-03T04:52:12.900Z,17.90
2016-12-03T04:53:12.267Z,17.90
2016-12-03T04:54:13.243Z,17.90
2016-12-03T04:55:12.120Z,17.90
2016-12-03T04:56:12.001Z,17.90
2016-12-03T04:57:10.660Z,17.90
2016-12-03T04:58:13.049Z,17.90
2016-12-03T04:59:11.651Z,17.90
2016-12-03T05:00:12.246Z,17.90
2016-12-03T05:01:11.299Z,17.90
2016-12-03T05:02:12.045Z,17.90
2016-12-03T05:03:11.740Z,17.90
2016-12-03T05:04:13.343Z,17.90
2016-12-03T05:05:13.139Z,17.90
2016-12-03T05:06:12.599Z,17.90
2016-12-03T05:07:10.205Z,17.90
2016-12-03T05:08:12.272Z,17.90
2016-12-03T05:09:11.352Z,17.90
2016-12-03T05:10:13.100Z,17.90
2016-12-03T05:11:12.923Z,17.90
2016-12-03T05:12:13.512Z,17.90
2016-12-03T05:13:12.536Z,17.90
2016-12-03T05:14:12.130Z,17.90
2016-12-03T05:15:11.662Z,17.90
2016-12-03T05:16:12.210Z,17.90
2016-12-03T05:17:12.249Z,17.90
2016-12-03T05:18:11.883Z,17.90
2016-12-03T05:19:13.594Z,17.90
2016-12-03T05:20:11.142Z,17.90
2016-12-03T05:21:11.807Z,17.90
2016-12-03T05:22:12.236Z,17.90
2016-12-03T05:23:14.152Z,17.90
2016-12-03T05:24:11.188Z,17.90
2016-12-03T05:25:15.043Z,17.90
2016-12-03T05:26:11.864Z,17.90
2016-12-03T05:27:12.537Z,17.90
2016-12-03T05:28:12.471Z,17.90
2016-12-03T05:29:10.121Z,17.90
2016-12-03T05:30:12.230Z,17.90
2016-12-03T05:31:12.229Z,17.90
2016-12-03T05:32:08.994Z,17.90
2016-12-03T05:33:11.677Z,17.90
2016-12-03T05:34:11.703Z,17.90
2016-12-03T05:35:12.017Z,17.90
2016-12-03T05:36:12.133Z,17.90
2016-12-03T05:37:11.770Z,17.90
2016-12-03T05:38:12.220Z,17.90
2016-12-03T05:39:11.468Z,17.90
2016-12-03T05:40:13.088Z,17.90
2016-12-03T05:41:11.127Z,17.90
2016-12-03T05:42:11.646Z,17.90
2016-12-03T05:43:13.034Z,17.90
2016-12-03T05:44:11.652Z,17.90
2016-12-03T05:45:12.428Z,17.90
2016-12-03T05:46:11.304Z,17.90
2016-12-03T05:47:12.154Z,17.90
2016-12-03T05:48:11.600Z,17.90
2016-12-03T05:49:12.571Z,17.90
2016-12-03T05:50:12.508Z,17.90
2016-12-03T05:51:10.296Z,17.90
2016-12-03T05:52:12.559Z,17.90
2016-12-03T05:53:11.608Z,17.90
2016-12-03T05:54:13.186Z,17.90
2016-12-03T05:55:12.775Z,17.90
2016-12-03T05:56:12.423Z,17.90
2016-12-03T05:57:13.038Z,17.90
2016-12-03T05:58:11.030Z,17.90
2016-12-03T05:59:12.319Z,17.90
2016-12-03T06:00:11.746Z,17.90
2016-12-03T06:01:12.699Z,17.90
2016-12-03T06:02:12.371Z,17.90
2016-12-03T06:03:11.349Z,17.90
2016-12-03T06:04:12.177Z,17.90
2016-12-03T06:05:11.828Z,17.90
2016-12-03T06:06:12.583Z,17.90
2016-12-03T06:07:11.991Z,17.90
2016-12-03T06:08:12.806Z,17.90
2016-12-03T06:09:11.638Z,17.90
2016-12-03T06:10:11.568Z,17.90
2016-12-03T06:11:11.630Z,17.90
2016-12-03T06:12:11.733Z,17.90
2016-12-03T06:13:12.466Z,17.90
2016-12-03T06:14:11.449Z,17.90
2016-12-03T06:15:11.455Z,17.90
2016-12-03T06:16:11.592Z,17.90
2016-12-03T06:17:13.107Z,17.90
2016-12-03T06:18:11.009Z,17.90
2016-12-03T06:19:12.252Z,17.90
2016-12-03T06:20:11.293Z,17.90
2016-12-03T06:21:12.114Z,17.90
2016-12-03T06:22:11.126Z,17.90
2016-12-03T06:23:12.634Z,17.90
2016-12-03T06:24:12.527Z,17.90
2016-12-03T06:25:12.082Z,17.90
2016-12-03T06:26:12.093Z,17.90
2016-12-03T06:27:11.239Z,17.90
2016-12-03T06:28:11.798Z,17.90
2016-12-03T06:29:12.323Z,17.90
2016-12-03T06:30:09.878Z,17.90
2016-12-03T06:31:11.151Z,17.90
2016-12-03T06:32:12.870Z,17.90
2016-12-03T06:33:12.419Z,17.90
2016-12-03T06:34:12.275Z,17.90
2016-12-03T06:35:11.371Z,17.90
2016-12-03T06:36:12.554Z,17.90
2016-12-03T06:37:12.321Z,17.90
2016-12-03T06:38:12.399Z,17.90
2016-12-03T06:39:08.815Z,17.90
2016-12-03T06:40:12.182Z,17.90
2016-12-03T06:41:11.937Z,17.90
2016-12-03T06:42:12.331Z,17.90
2016-12-03T06:43:11.480Z,17.90
2016-12-03T06:44:11.579Z,17.90
2016-12-03T06:45:12.422Z,17.90
2016-12-03T06:46:14.240Z,17.90
2016-12-03T06:47:13.191Z,17.90
2016-12-03T06:48:11.767Z,17.90
2016-12-03T06:49:12.898Z,17.90
2016-12-03T06:50:12.287Z,17.90
2016-12-03T06:51:12.652Z,17.90
2016-12-03T06:52:10.151Z,17.90
2016-12-03T06:53:12.914Z,17.90
2016-12-03T06:54:11.883Z,17.90
2016-12-03T06:55:12.780Z,17.90
2016-12-03T06:56:11.777Z,17.90
2016-12-03T06:57:13.066Z,17.90
2016-12-03T06:58:11.218Z,17.90
2016-12-03T06:59:12.873Z,17.90
2016-12-03T07:00:11.882Z,17.90
2016-12-03T07:01:13.064Z,17.90
2016-12-03T07:02:11.588Z,17.90
2016-12-03T07:03:12.647Z,17.90
2016-12-03T07:04:11.770Z,17.90
2016-12-03T07:05:11.983Z,17.90
2016-12-03T07:06:11.776Z,17.90
2016-12-03T07:07:11.814Z,17.80
2016-12-03T07:08:12.280Z,17.90
2016-12-03T07:09:12.757Z,17.90
2016-12-03T07:10:12.510Z,17.90
2016-12-03T07:11:11.605Z,18.10
2016-12-03T07:12:12.031Z,18.30
2016-12-03T07:13:12.647Z,18.50
2016-12-03T07:14:11.681Z,18.50
2016-12-03T07:15:12.317Z,17.30
2016-12-03T07:16:09.734Z,16.00
2016-12-03T07:17:09.520Z,15.20
2016-12-03T07:18:12.308Z,14.60
2016-12-03T07:19:11.853Z,14.50
2016-12-03T07:20:12.393Z,14.30
2016-12-03T07:21:13.175Z,14.10
2016-12-03T07:22:12.935Z,14.30
2016-12-03T07:23:12.345Z,14.60
2016-12-03T07:24:11.338Z,14.90
2016-12-03T07:25:11.290Z,15.20
2016-12-03T07:26:11.995Z,15.50
2016-12-03T07:27:12.581Z,15.70
2016-12-03T07:28:12.241Z,15.90
2016-12-03T07:29:11.371Z,16.10
2016-12-03T07:30:11.374Z,16.20
2016-12-03T07:31:12.009Z,16.40
2016-12-03T07:32:12.364Z,16.50
2016-12-03T07:33:12.141Z,16.60
2016-12-03T07:34:11.071Z,16.70
2016-12-03T07:35:08.885Z,16.90
2016-12-03T07:36:12.977Z,16.90
2016-12-03T07:37:10.277Z,17.00
2016-12-03T07:38:12.581Z,17.00
2016-12-03T07:39:13.391Z,17.00
2016-12-03T07:40:11.518Z,17.00
2016-12-03T07:41:11.583Z,17.10
2016-12-03T07:42:11.775Z,17.10
2016-12-03T07:43:11.800Z,17.20
2016-12-03T07:44:12.510Z,17.20
2016-12-03T07:45:12.305Z,17.20
2016-12-03T07:46:11.705Z,17.30
2016-12-03T07:47:12.166Z,17.30
2016-12-03T07:48:11.161Z,17.30
2016-12-03T07:49:11.184Z,17.40
2016-12-03T07:50:12.968Z,17.40
2016-12-03T07:51:12.025Z,17.40
2016-12-03T07:52:11.073Z,17.40
2016-12-03T07:53:11.712Z,17.50
2016-12-03T07:54:12.685Z,17.50
2016-12-03T07:55:11.817Z,17.50
2016-12-03T07:56:12.115Z,17.50
2016-12-03T07:57:11.228Z,17.50
2016-12-03T07:58:11.598Z,17.60
2016-12-03T07:59:12.175Z,17.50
2016-12-03T08:00:11.253Z,17.60
2016-12-03T08:01:11.906Z,17.60
2016-12-03T08:02:12.728Z,17.60
2016-12-03T08:03:11.715Z,17.60
2016-12-03T08:04:11.755Z,17.60
2016-12-03T08:05:12.228Z,17.60
2016-12-03T08:06:11.243Z,17.60
2016-12-03T08:07:11.267Z,17.60
2016-12-03T08:08:11.182Z,17.60
2016-12-03T08:09:09.002Z,17.70
2016-12-03T08:10:11.397Z,17.70
2016-12-03T08:11:12.341Z,17.70
2016-12-03T08:12:11.374Z,17.70
2016-12-03T08:13:11.637Z,17.70
2016-12-03T08:14:13.126Z,17.70
2016-12-03T08:15:12.814Z,17.70
2016-12-03T08:16:12.434Z,17.70
2016-12-03T08:17:12.148Z,17.70
2016-12-03T08:18:11.136Z,17.70
2016-12-03T08:19:11.880Z,17.70
2016-12-03T08:20:12.426Z,17.70
2016-12-03T08:21:11.449Z,17.70
2016-12-03T08:22:11.907Z,17.70
2016-12-03T08:23:12.538Z,17.70
2016-12-03T08:24:12.086Z,17.70
2016-12-03T08:25:11.165Z,17.70
2016-12-03T08:26:11.459Z,17.70
2016-12-03T08:27:12.393Z,17.70
2016-12-03T08:28:11.777Z,17.70
2016-12-03T08:29:11.855Z,17.70
2016-12-03T08:30:12.485Z,17.70
2016-12-03T08:31:11.612Z,17.70
2016-12-03T08:32:11.720Z,17.70
2016-12-03T08:33:12.296Z,17.70
2016-12-03T08:34:12.260Z,17.70
2016-12-03T08:35:12.356Z,17.70
2016-12-03T08:36:12.036Z,17.70
2016-12-03T08:37:12.670Z,17.70
2016-12-03T08:38:08.827Z,17.70
2016-12-03T08:39:09.850Z,17.70
2016-12-03T08:40:11.491Z,17.70
2016-12-03T08:41:11.460Z,17.70
2016-12-03T08:42:11.353Z,17.70
2016-12-03T08:43:11.846Z,17.70
2016-12-03T08:44:12.392Z,17.70
2016-12-03T08:45:11.400Z,17.70
2016-12-03T08:46:10.245Z,17.70
2016-12-03T08:47:11.516Z,17.70
2016-12-03T08:48:12.234Z,17.70
2016-12-03T08:49:12.003Z,17.70
2016-12-03T08:50:10.555Z,17.70
2016-12-03T08:51:11.774Z,17.70
2016-12-03T08:52:13.397Z,17.60
2016-12-03T08:53:11.801Z,17.70
2016-12-03T08:54:12.226Z,17.70
2016-12-03T08:55:11.877Z,17.70
2016-12-03T08:56:12.360Z,17.70
2016-12-03T08:57:11.405Z,17.70
2016-12-03T08:58:11.528Z,17.70
2016-12-03T08:59:11.665Z,17.70
2016-12-03T09:00:12.346Z,17.70
2016-12-03T09:01:11.988Z,17.70
2016-12-03T09:02:11.054Z,17.70
2016-12-03T09:03:11.712Z,17.70
2016-12-03T09:04:12.512Z,17.70
2016-12-03T09:05:11.540Z,17.70
2016-12-03T09:06:12.198Z,17.70
2016-12-03T09:07:11.869Z,17.70
2016-12-03T09:08:12.360Z,17.70
2016-12-03T09:09:11.833Z,17.70
2016-12-03T09:10:13.466Z,17.70
2016-12-03T09:11:11.452Z,17.70
2016-12-03T09:12:12.225Z,17.70
2016-12-03T09:13:11.220Z,17.70
2016-12-03T09:14:11.253Z,17.70
2016-12-03T09:15:11.344Z,17.70
2016-12-03T09:16:11.439Z,17.70
2016-12-03T09:17:12.208Z,17.70
2016-12-03T09:18:11.253Z,17.70
2016-12-03T09:19:11.465Z,17.70
2016-12-03T09:20:10.129Z,17.70
2016-12-03T09:21:12.371Z,17.70
2016-12-03T09:22:12.258Z,17.70
2016-12-03T09:23:11.176Z,17.70
2016-12-03T09:24:12.737Z,17.70
2016-12-03T09:25:11.648Z,17.70
2016-12-03T09:26:13.375Z,17.70
2016-12-03T09:27:11.455Z,17.70
2016-12-03T09:28:11.584Z,17.70
2016-12-03T09:29:11.513Z,17.70
2016-12-03T09:30:11.622Z,17.70
2016-12-03T09:31:11.939Z,17.70
2016-12-03T09:32:12.048Z,17.70
2016-12-03T09:33:10.981Z,17.70
2016-12-03T09:34:11.941Z,17.70
2016-12-03T09:35:11.707Z,17.70
2016-12-03T09:36:11.830Z,17.70
2016-12-03T09:37:11.775Z,17.70
2016-12-03T09:38:11.788Z,17.70
2016-12-03T09:39:10.383Z,17.70
2016-12-03T09:40:11.920Z,17.70
2016-12-03T09:41:10.357Z,17.80
2016-12-03T09:42:11.519Z,17.70
2016-12-03T09:43:12.117Z,17.80
2016-12-03T09:44:11.063Z,17.80
2016-12-03T09:45:12.649Z,17.80
2016-12-03T09:46:11.704Z,17.80
2016-12-03T09:47:11.629Z,17.80
2016-12-03T09:48:09.397Z,17.80
2016-12-03T09:49:12.300Z,17.80
2016-12-03T09:50:12.160Z,17.80
2016-12-03T09:51:11.050Z,17.80
2016-12-03T09:52:12.008Z,17.80
2016-12-03T09:53:12.009Z,17.80
2016-12-03T09:54:12.045Z,17.80
2016-12-03T09:55:11.079Z,17.80
2016-12-03T09:56:11.784Z,17.80
2016-12-03T09:57:11.718Z,17.80
2016-12-03T09:58:12.155Z,17.80
2016-12-03T09:59:12.460Z,17.80
2016-12-03T10:00:13.251Z,17.80
2016-12-03T10:01:12.782Z,17.80
2016-12-03T10:02:12.291Z,17.80
2016-12-03T10:03:12.130Z,17.80
2016-12-03T10:04:11.533Z,17.80
2016-12-03T10:05:11.476Z,17.80
2016-12-03T10:06:09.904Z,17.80
2016-12-03T10:07:12.209Z,17.80
2016-12-03T10:08:11.884Z,17.80
2016-12-03T10:09:12.341Z,17.80
2016-12-03T10:10:11.428Z,17.80
2016-12-03T10:11:12.546Z,17.80
2016-12-03T10:12:11.635Z,17.80
2016-12-03T10:13:12.963Z,17.80
2016-12-03T10:14:12.333Z,17.80
2016-12-03T10:15:10.062Z,17.80
2016-12-03T10:16:11.548Z,17.80
2016-12-03T10:17:11.545Z,17.80
2016-12-03T10:18:12.190Z,17.80
2016-12-03T10:19:11.874Z,17.80
2016-12-03T10:20:11.877Z,17.80
2016-12-03T10:21:12.265Z,17.80
2016-12-03T10:22:11.343Z,17.80
2016-12-03T10:23:12.003Z,17.80
2016-12-03T10:24:11.063Z,17.80
2016-12-03T10:25:11.804Z,17.80
2016-12-03T10:26:13.447Z,17.80
2016-12-03T10:27:12.134Z,17.80
2016-12-03T10:28:11.065Z,17.80
2016-12-03T10:29:11.207Z,17.80
2016-12-03T10:30:12.886Z,17.80
2016-12-03T10:31:14.731Z,17.80
2016-12-03T10:32:11.817Z,17.80
2016-12-03T10:33:11.933Z,17.80
2016-12-03T10:34:11.963Z,17.80
2016-12-03T10:35:12.489Z,17.80
2016-12-03T10:36:12.949Z,17.80
2016-12-03T10:37:12.831Z,17.80
2016-12-03T10:38:09.570Z,17.80
2016-12-03T10:39:11.062Z,17.80
2016-12-03T10:40:11.805Z,17.80
2016-12-03T10:41:12.364Z,17.80
2016-12-03T10:42:11.847Z,17.80
2016-12-03T10:43:11.887Z,17.80
2016-12-03T10:44:11.851Z,17.80
2016-12-03T10:45:12.630Z,17.80
2016-12-03T10:46:13.169Z,17.80
2016-12-03T10:47:08.525Z,17.80
2016-12-03T10:48:11.781Z,17.80
2016-12-03T10:49:11.828Z,17.80
2016-12-03T10:50:12.341Z,17.80
2016-12-03T10:51:12.099Z,17.80
2016-12-03T10:52:11.081Z,17.80
2016-12-03T10:53:11.228Z,17.80
2016-12-03T10:54:11.944Z,17.80
2016-12-03T10:55:12.008Z,17.80
2016-12-03T10:56:11.479Z,17.80
2016-12-03T10:57:12.009Z,17.80
2016-12-03T10:58:10.957Z,17.80
2016-12-03T10:59:14.440Z,17.80
2016-12-03T11:00:13.159Z,17.80
2016-12-03T11:01:11.126Z,17.80
2016-12-03T11:02:11.149Z,17.80
2016-12-03T11:03:11.883Z,17.80
2016-12-03T11:04:12.738Z,17.80
2016-12-03T11:05:11.780Z,17.80
2016-12-03T11:06:14.278Z,17.80
2016-12-03T11:07:12.960Z,17.80
2016-12-03T11:08:10.692Z,17.80
2016-12-03T11:09:12.540Z,17.80
2016-12-03T11:10:12.117Z,17.80
2016-12-03T11:11:08.837Z,17.80
2016-12-03T11:12:13.257Z,17.80
2016-12-03T11:13:12.056Z,17.80
2016-12-03T11:14:11.200Z,17.90
2016-12-03T11:15:11.275Z,17.80
2016-12-03T11:16:11.327Z,17.80
2016-12-03T11:17:13.257Z,17.90
2016-12-03T11:18:11.832Z,17.80
2016-12-03T11:19:11.771Z,17.80
2016-12-03T11:20:11.837Z,17.80
2016-12-03T11:21:12.261Z,17.80
2016-12-03T11:22:11.207Z,17.80
2016-12-03T11:23:13.125Z,17.80
2016-12-03T11:24:08.990Z,17.80
2016-12-03T11:25:11.369Z,17.80
2016-12-03T11:26:11.859Z,17.80
2016-12-03T11:27:11.927Z,17.80
2016-12-03T11:28:13.327Z,17.80
2016-12-03T11:29:11.912Z,17.80
2016-12-03T11:30:12.849Z,17.80
2016-12-03T11:31:11.636Z,17.80
2016-12-03T11:32:11.750Z,17.80
2016-12-03T11:33:11.646Z,17.80
2016-12-03T11:34:11.758Z,17.80
2016-12-03T11:35:12.249Z,17.80
2016-12-03T11:36:11.758Z,17.80
2016-12-03T11:37:11.835Z,17.80
2016-12-03T11:38:11.948Z,17.80
2016-12-03T11:39:12.419Z,17.80
2016-12-03T11:40:12.117Z,17.80
2016-12-03T11:41:09.789Z,17.80
2016-12-03T11:42:11.246Z,17.80
2016-12-03T11:43:11.268Z,17.80
2016-12-03T11:44:11.820Z,17.80
2016-12-03T11:45:09.672Z,17.80
2016-12-03T11:46:11.236Z,17.80
2016-12-03T11:47:11.282Z,17.80
2016-12-03T11:48:11.858Z,17.80
2016-12-03T11:49:13.706Z,17.90
2016-12-03T11:50:12.278Z,17.90
2016-12-03T11:51:11.241Z,17.90
2016-12-03T11:52:11.916Z,17.90
2016-12-03T11:53:12.277Z,17.90
2016-12-03T11:54:09.899Z,17.90
2016-12-03T11:55:11.440Z,17.90
2016-12-03T11:56:12.041Z,17.90
2016-12-03T11:57:11.789Z,17.90
2016-12-03T11:58:11.796Z,17.90
2016-12-03T11:59:11.753Z,17.90
2016-12-03T12:00:12.390Z,17.90
2016-12-03T12:01:10.183Z,17.90
2016-12-03T12:02:11.428Z,17.90
2016-12-03T12:03:11.992Z,17.90
2016-12-03T12:04:12.029Z,17.90
2016-12-03T12:05:13.670Z,17.90
2016-12-03T12:06:11.779Z,17.90
2016-12-03T12:07:10.023Z,17.90
2016-12-03T12:08:11.518Z,17.90
2016-12-03T12:09:12.031Z,17.90
2016-12-03T12:10:11.974Z,17.90
2016-12-03T12:11:11.975Z,17.90
2016-12-03T12:12:12.468Z,17.90
2016-12-03T12:13:11.642Z,17.90
2016-12-03T12:14:11.643Z,17.90
2016-12-03T12:15:12.262Z,17.90
2016-12-03T12:16:11.237Z,17.90
2016-12-03T12:17:13.249Z,17.90
2016-12-03T12:18:11.205Z,17.80
2016-12-03T12:19:11.962Z,17.80
2016-12-03T12:20:11.965Z,17.80
2016-12-03T12:21:13.653Z,17.80
2016-12-03T12:22:12.523Z,17.80
2016-12-03T12:23:11.507Z,17.80
2016-12-03T12:24:11.629Z,17.80
2016-12-03T12:25:12.311Z,17.80
2016-12-03T12:26:11.394Z,17.80
2016-12-03T12:27:13.249Z,17.80
2016-12-03T12:28:12.012Z,17.80
2016-12-03T12:29:10.551Z,17.80
2016-12-03T12:30:11.631Z,17.80
2016-12-03T12:31:12.314Z,17.80
2016-12-03T12:32:12.252Z,17.80
2016-12-03T12:33:08.737Z,17.80
2016-12-03T12:34:12.053Z,17.80
2016-12-03T12:35:12.102Z,17.80
2016-12-03T12:36:11.365Z,17.80
2016-12-03T12:37:11.499Z,17.80
2016-12-03T12:38:09.892Z,17.80
2016-12-03T12:39:11.871Z,17.80
2016-12-03T12:40:12.502Z,17.80
2016-12-03T12:41:12.033Z,17.80
2016-12-03T12:42:11.169Z,17.80
2016-12-03T12:43:11.874Z,17.80
2016-12-03T12:44:11.741Z,17.80
2016-12-03T12:45:10.283Z,17.80
2016-12-03T12:46:12.244Z,17.80
2016-12-03T12:47:11.378Z,17.80
2016-12-03T12:48:11.947Z,17.80
2016-12-03T12:49:13.745Z,17.80
2016-12-03T12:50:12.089Z,17.80
2016-12-03T12:51:08.404Z,17.80
2016-12-03T12:52:11.749Z,17.80